createdAt,value
2023-05-05T00:13:26.086Z,3.1
2023-05-05T00:29:08.686Z,3
2023-05-05T00:44:51.049Z,3.1
2023-05-05T01:00:33.775Z,2.9
2023-05-05T01:16:16.455Z,2.9
2023-05-05T01:31:59.431Z,2.8
2023-05-05T01:47:41.538Z,3
2023-05-05T02:03:23.689Z,3.2
2023-05-05T02:19:06.593Z,3
2023-05-05T02:34:48.871Z,2.7
2023-05-05T02:50:31.526Z,3.3
2023-05-05T03:06:14.303Z,3.2
2023-05-05T03:21:56.765Z,3.4
2023-05-05T03:37:39.703Z,3.4
2023-05-05T03:53:22.614Z,3.8
2023-05-05T04:24:47.499Z,3.5
2023-05-05T04:40:29.655Z,3.7
2023-05-05T04:56:12.633Z,4
2023-05-05T05:11:55.032Z,3.6
2023-05-05T05:27:37.929Z,3.6
2023-05-05T05:59:02.631Z,3.5
2023-05-05T06:30:27.892Z,3.7
2023-05-05T06:46:10.777Z,3.9
2023-05-05T07:02:00.766Z,3.7
2023-05-05T07:17:36.649Z,3.7
2023-05-05T07:33:26.459Z,3.5
2023-05-05T07:49:01.662Z,3.3
2023-05-05T08:36:08.814Z,3.4
2023-05-05T09:07:34.336Z,3.4
2023-05-05T09:23:16.974Z,3.2
2023-05-05T10:10:24.719Z,3.1
2023-05-05T10:26:14.409Z,3
2023-05-05T10:41:50.105Z,3
2023-05-05T10:57:32.449Z,2.9
2023-05-05T11:13:22.092Z,2.7
2023-05-05T11:28:57.016Z,2.5
2023-05-05T11:44:39.026Z,2.7
2023-05-05T12:31:46.241Z,2.5
2023-05-05T12:47:28.623Z,2.09
2023-05-05T13:03:11.408Z,2.09
2023-05-05T13:19:01.141Z,2.2
2023-05-05T13:19:48.342Z,2
2023-05-05T14:06:55.923Z,2.3
2023-05-05T14:22:45.675Z,2.09
2023-05-05T15:09:46.326Z,2.3
2023-05-05T15:25:28.923Z,2.3
2023-05-05T15:41:11.600Z,2.5
2023-05-05T15:57:01.454Z,3.1
2023-05-05T16:12:36.667Z,2.7
2023-05-05T16:28:33.302Z,2.9
2023-05-05T16:44:08.738Z,2.8
2023-05-05T16:59:43.935Z,4.19
2023-05-05T17:15:33.109Z,3.4
2023-05-05T17:31:08.871Z,2.9
2023-05-05T17:46:50.987Z,3.4
2023-05-05T18:02:32.920Z,3.7
2023-05-05T18:34:05.701Z,4.19
2023-05-05T18:49:40.807Z,4
2023-05-05T19:05:23.829Z,4.4
2023-05-05T19:37:03.199Z,3.9
2023-05-05T19:52:38.855Z,4.3
2023-05-05T20:08:14.299Z,3.8
2023-05-05T20:24:03.696Z,4.4
2023-05-05T20:39:46.090Z,5.6
2023-05-05T20:55:28.265Z,7.3
2023-05-05T21:11:03.518Z,4.1
2023-05-05T21:27:00.565Z,6.4
2023-05-05T21:42:36.184Z,6.7
2023-05-05T22:13:53.843Z,4.3
2023-05-05T22:29:50.531Z,3.8
2023-05-05T22:45:19.178Z,4.5
2023-05-05T23:01:01.750Z,3.9
2023-05-05T23:16:44.511Z,4.4
2023-05-05T23:32:27.252Z,5.2
2023-05-05T23:48:09.758Z,5.5
